Time;durP1;ratioP1;P1;durP2;ratioP2;P2;SDS_P1;SDS_P2;PMS_P1;PMS_P2;Temp;Humidity;BMP_temperature;BMP_pressure;BME280_temperature;BME280_humidity;BME280_pressure;Samples;Min_cycle;Max_cycle;Signal;HPM_P1;HPM_P2
2022/12/05 00:01:12;;;;;;;;;;;4.60;99.90;;;;;;5066471;28;19927;-71
2022/12/05 00:03:38;;;;;;;;;;;4.60;99.90;;;;;;5008655;28;212345;-71
2022/12/05 00:06:04;;;;;;;;;;;4.50;99.90;;;;;;5069715;28;19931;-71
2022/12/05 00:08:30;;;;;;;;;;;4.60;99.90;;;;;;5008144;28;207790;-72
2022/12/05 00:10:56;;;;;;;;;;;4.60;99.90;;;;;;5069646;28;19929;-71
2022/12/05 00:13:22;;;;;;;;;;;4.60;99.90;;;;;;5037984;28;162938;-72
2022/12/05 00:15:48;;;;;;;;;;;4.60;99.90;;;;;;5070937;28;19925;-71
2022/12/05 00:18:14;;;;;;;;;;;4.60;99.90;;;;;;5028980;28;208062;-70
2022/12/05 00:20:44;;;;;;;;;;;4.60;99.90;;;;;;5063145;28;19923;-70
2022/12/05 00:23:10;;;;;;;;;;;4.60;99.90;;;;;;5037827;28;207809;-71
2022/12/05 00:25:36;;;;;;;;;;;4.60;99.90;;;;;;5070959;28;20393;-70
2022/12/05 00:28:02;;;;;;;;;;;4.70;99.90;;;;;;5019087;28;111223;-70
2022/12/05 00:30:28;;;;;;;;;;;4.60;99.90;;;;;;5075480;28;19939;-69
2022/12/05 00:32:54;;;;;;;;;;;4.60;99.90;;;;;;5017680;28;196271;-70
2022/12/05 00:35:20;;;;;;;;;;;4.70;99.90;;;;;;5046022;28;19985;-70
2022/12/05 00:37:46;;;;;;;;;;;4.70;99.90;;;;;;5011758;28;217871;-70
2022/12/05 00:40:12;;;;;;;;;;;4.70;99.90;;;;;;5058486;28;19972;-71
2022/12/05 00:42:38;;;;;;;;;;;4.70;99.90;;;;;;5013739;28;207269;-70
2022/12/05 00:45:04;;;;;;;;;;;4.70;99.90;;;;;;5058128;28;19924;-70
2022/12/05 00:47:33;;;;;;;;;;;4.70;99.90;;;;;;5034297;28;171889;-71
2022/12/05 00:49:59;;;;;;;;;;;4.70;99.90;;;;;;5064653;28;19936;-71
2022/12/05 00:52:25;;;;;;;;;;;4.70;99.90;;;;;;5030319;27;208804;-70
2022/12/05 00:54:51;;;;;;;;;;;4.70;99.90;;;;;;5075367;28;19924;-71
2022/12/05 00:57:17;;;;;;;;;;;4.70;99.90;;;;;;5019301;28;174996;-70
2022/12/05 00:59:43;;;;;;;;;;;4.70;99.90;;;;;;5066715;28;19971;-70
2022/12/05 01:02:09;;;;;;;;;;;4.80;99.90;;;;;;5007930;28;110234;-70
2022/12/05 01:04:35;;;;;;;;;;;4.70;99.90;;;;;;5068990;28;20309;-70
2022/12/05 01:07:01;;;;;;;;;;;4.70;99.90;;;;;;5046667;28;208489;-70
2022/12/05 01:09:27;;;;;;;;;;;4.80;99.90;;;;;;5074599;28;20433;-70
2022/12/05 01:11:53;;;;;;;;;;;4.80;99.90;;;;;;5022075;28;207780;-70
2022/12/05 01:14:19;;;;;;;;;;;4.80;99.90;;;;;;5044977;28;20370;-71
2022/12/05 01:16:46;;;;;;;;;;;4.90;99.90;;;;;;5064825;27;208066;-70
2022/12/05 01:19:14;;;;;;;;;;;4.90;99.90;;;;;;5048540;28;19946;-71
2022/12/05 01:21:41;;;;;;;;;;;4.90;99.90;;;;;;5052867;28;207883;-70
2022/12/05 01:24:07;;;;;;;;;;;4.90;99.90;;;;;;5020392;28;233448;-70
2022/12/05 01:26:33;;;;;;;;;;;4.90;99.90;;;;;;5066604;28;19939;-71
2022/12/05 01:28:59;;;;;;;;;;;4.90;99.90;;;;;;5014736;28;179826;-71
2022/12/05 01:31:25;;;;;;;;;;;5.00;99.90;;;;;;5101301;27;19932;-70
2022/12/05 01:33:52;;;;;;;;;;;4.90;99.90;;;;;;5014291;28;209410;-72
2022/12/05 01:36:18;;;;;;;;;;;5.00;99.90;;;;;;5062843;28;19924;-70
2022/12/05 01:38:44;;;;;;;;;;;5.00;99.90;;;;;;5014900;28;206431;-70
2022/12/05 01:41:13;;;;;;;;;;;5.00;99.90;;;;;;5062863;28;20437;-70
2022/12/05 01:43:56;;;;;;;;;;;5.00;99.90;;;;;;5013933;28;211830;-70
2022/12/05 01:46:23;;;;;;;;;;;5.00;99.90;;;;;;5078335;28;19924;-71
2022/12/05 01:48:50;;;;;;;;;;;5.00;99.90;;;;;;5003912;28;190836;-71
2022/12/05 01:51:16;;;;;;;;;;;5.00;99.90;;;;;;5081109;28;19920;-71
2022/12/05 01:53:42;;;;;;;;;;;5.00;99.90;;;;;;5004839;28;125974;-70
2022/12/05 01:56:09;;;;;;;;;;;5.00;99.90;;;;;;5080747;28;19928;-70
2022/12/05 01:58:36;;;;;;;;;;;5.00;99.90;;;;;;5023164;28;209792;-70
2022/12/05 02:01:02;;;;;;;;;;;5.00;99.90;;;;;;5072570;28;20377;-70
2022/12/05 02:03:28;;;;;;;;;;;5.10;99.90;;;;;;4995287;28;208241;-71
2022/12/05 02:05:55;;;;;;;;;;;5.10;99.90;;;;;;5064022;28;20027;-71
2022/12/05 02:08:23;;;;;;;;;;;5.10;99.90;;;;;;5015423;28;126233;-71
2022/12/05 02:10:50;;;;;;;;;;;5.10;99.90;;;;;;5060583;28;19931;-71
2022/12/05 02:13:34;;;;;;;;;;;5.10;99.90;;;;;;5033808;28;208600;-71
2022/12/05 02:16:00;;;;;;;;;;;5.10;99.90;;;;;;5061189;28;19927;-71
2022/12/05 02:18:54;;;;;;;;;;;5.10;99.90;;;;;;5007035;28;150658;-70
2022/12/05 02:21:20;;;;;;;;;;;5.10;99.90;;;;;;5072667;28;19920;-70
2022/12/05 02:24:05;;;;;;;;;;;5.10;99.90;;;;;;5000813;28;199598;-71
2022/12/05 02:27:00;;;;;;;;;;;5.10;99.90;;;;;;5092637;28;19935;-70
2022/12/05 02:29:49;;;;;;;;;;;5.10;99.90;;;;;;4923714;28;208463;-71
2022/12/05 02:32:30;;;;;;;;;;;5.10;99.90;;;;;;4943242;28;208779;-70
2022/12/05 02:35:06;;;;;;;;;;;5.10;99.90;;;;;;5007956;28;19928;-70
2022/12/05 02:37:41;;;;;;;;;;;5.10;99.90;;;;;;4951438;28;194063;-70
2022/12/05 02:40:28;;;;;;;;;;;5.10;99.90;;;;;;5001407;28;19936;-70
2022/12/05 02:43:06;;;;;;;;;;;5.10;99.90;;;;;;4952900;28;112995;-70
2022/12/05 02:45:33;;;;;;;;;;;5.10;99.90;;;;;;4989411;28;19925;-71
2022/12/05 02:48:00;;;;;;;;;;;5.10;99.90;;;;;;4952361;28;199691;-70
2022/12/05 02:50:30;;;;;;;;;;;5.10;99.90;;;;;;5000499;28;19933;-70
2022/12/05 02:52:58;;;;;;;;;;;5.20;99.90;;;;;;4937819;28;202456;-70
2022/12/05 02:55:25;;;;;;;;;;;5.20;99.90;;;;;;4989713;28;19925;-70
2022/12/05 02:57:53;;;;;;;;;;;5.20;99.90;;;;;;4954625;28;215194;-70
2022/12/05 03:00:19;;;;;;;;;;;5.20;99.90;;;;;;5019184;28;19921;-70
2022/12/05 03:02:47;;;;;;;;;;;5.20;99.90;;;;;;4942148;28;140752;-70
2022/12/05 03:05:39;;;;;;;;;;;5.20;99.90;;;;;;5029786;28;19924;-70
2022/12/05 03:08:07;;;;;;;;;;;5.20;99.90;;;;;;5032129;28;206818;-71
2022/12/05 03:10:33;;;;;;;;;;;5.20;99.90;;;;;;5063113;28;19924;-71
2022/12/05 03:13:03;;;;;;;;;;;5.20;99.90;;;;;;5030766;28;192391;-71
2022/12/05 03:15:36;;;;;;;;;;;5.20;99.90;;;;;;5080906;28;19931;-71
2022/12/05 03:18:05;;;;;;;;;;;5.20;99.90;;;;;;5011890;28;211525;-71
2022/12/05 03:20:33;;;;;;;;;;;5.20;99.90;;;;;;5062241;28;19924;-72
2022/12/05 03:23:06;;;;;;;;;;;5.20;99.90;;;;;;4995619;28;110107;-71
2022/12/05 03:25:45;;;;;;;;;;;5.20;99.90;;;;;;5048369;28;19927;-72
2022/12/05 03:28:17;;;;;;;;;;;5.20;99.90;;;;;;5016037;28;206970;-72
2022/12/05 03:30:46;;;;;;;;;;;5.20;99.90;;;;;;5063175;28;19932;-71
2022/12/05 03:33:16;;;;;;;;;;;5.30;99.90;;;;;;5028486;28;146206;-71
2022/12/05 03:35:42;;;;;;;;;;;5.20;99.90;;;;;;5062787;28;19920;-72
2022/12/05 03:38:23;;;;;;;;;;;5.30;99.90;;;;;;4999976;28;205536;-71
2022/12/05 03:41:01;;;;;;;;;;;5.20;99.90;;;;;;5037729;28;19921;-71
2022/12/05 03:43:37;;;;;;;;;;;5.30;99.90;;;;;;5026986;27;100487;-71
2022/12/05 03:46:17;;;;;;;;;;;5.30;99.90;;;;;;5094898;28;19929;-71
2022/12/05 03:48:54;;;;;;;;;;;5.30;99.90;;;;;;5019899;28;187296;-72
2022/12/05 03:51:22;;;;;;;;;;;5.30;99.90;;;;;;5102907;28;19932;-72
2022/12/05 03:53:51;;;;;;;;;;;5.30;99.90;;;;;;5018468;28;202652;-72
2022/12/05 03:56:19;;;;;;;;;;;5.30;99.90;;;;;;5099195;28;19928;-72
2022/12/05 03:58:49;;;;;;;;;;;5.30;99.90;;;;;;5016743;28;205335;-72
2022/12/05 04:01:16;;;;;;;;;;;5.20;99.90;;;;;;5079738;28;19931;-72
2022/12/05 04:03:45;;;;;;;;;;;5.30;99.90;;;;;;4995785;28;204149;-73
2022/12/05 04:06:15;;;;;;;;;;;5.20;99.90;;;;;;5067994;28;20349;-73
2022/12/05 04:08:44;;;;;;;;;;;5.30;99.90;;;;;;5013426;28;215392;-72
2022/12/05 04:11:13;;;;;;;;;;;5.30;99.90;;;;;;5097379;27;19929;-72
2022/12/05 04:13:44;;;;;;;;;;;5.30;99.90;;;;;;4982952;28;194469;-72
2022/12/05 04:19:10;;;;;;;;;;;5.20;99.90;;;;;;5004678;28;261558;-72
2022/12/05 04:21:42;;;;;;;;;;;5.30;99.90;;;;;;5075942;28;19928;-73
2022/12/05 04:27:20;;;;;;;;;;;5.30;99.90;;;;;;5024212;28;207404;-73
2022/12/05 04:30:01;;;;;;;;;;;5.30;99.90;;;;;;4984324;28;19934;-72
2022/12/05 04:32:29;;;;;;;;;;;5.30;99.90;;;;;;4953894;28;112706;-72
2022/12/05 04:34:57;;;;;;;;;;;5.30;99.90;;;;;;4970823;28;19926;-72
2022/12/05 04:37:25;;;;;;;;;;;5.30;99.90;;;;;;4936319;28;107556;-73
2022/12/05 04:39:56;;;;;;;;;;;5.30;99.90;;;;;;5003493;28;19929;-73
2022/12/05 04:42:25;;;;;;;;;;;5.30;99.90;;;;;;4944926;28;171638;-73
2022/12/05 04:44:56;;;;;;;;;;;5.30;99.90;;;;;;5004863;28;20679;-73
2022/12/05 04:47:24;;;;;;;;;;;5.30;99.90;;;;;;4959259;28;123513;-73
2022/12/05 04:49:52;;;;;;;;;;;5.30;99.90;;;;;;5008296;28;19937;-73
2022/12/05 04:52:18;;;;;;;;;;;5.30;99.90;;;;;;4956699;28;208466;-73
2022/12/05 04:54:51;;;;;;;;;;;5.30;99.90;;;;;;4976034;28;20403;-73
2022/12/05 04:57:20;;;;;;;;;;;5.30;99.90;;;;;;4951980;28;169572;-73
2022/12/05 04:59:46;;;;;;;;;;;5.30;99.90;;;;;;5000316;28;19925;-73
2022/12/05 05:02:15;;;;;;;;;;;5.30;99.90;;;;;;4914535;28;153347;-73
2022/12/05 05:04:46;;;;;;;;;;;5.30;99.90;;;;;;5011651;28;20379;-73
2022/12/05 05:07:12;;;;;;;;;;;5.30;99.90;;;;;;4992964;28;197182;-73
2022/12/05 05:09:39;;;;;;;;;;;5.30;99.90;;;;;;5054776;28;19939;-73
2022/12/05 05:12:05;;;;;;;;;;;5.30;99.90;;;;;;5021586;28;159497;-73
2022/12/05 05:14:31;;;;;;;;;;;5.30;99.90;;;;;;5018154;28;20519;-73
2022/12/05 05:16:57;;;;;;;;;;;5.30;99.90;;;;;;5047242;27;213865;-73
2022/12/05 05:19:24;;;;;;;;;;;5.30;99.90;;;;;;5045815;28;19936;-73
2022/12/05 05:21:50;;;;;;;;;;;5.30;99.90;;;;;;5011786;28;207647;-74
2022/12/05 05:24:17;;;;;;;;;;;5.30;99.90;;;;;;5080370;28;19935;-72
2022/12/05 05:26:44;;;;;;;;;;;5.30;99.90;;;;;;5083078;28;207605;-73
2022/12/05 05:29:10;;;;;;;;;;;5.30;99.90;;;;;;5016641;28;19924;-73
2022/12/05 05:31:37;;;;;;;;;;;5.30;99.90;;;;;;5049604;28;19947;-73
2022/12/05 05:34:03;;;;;;;;;;;5.30;99.90;;;;;;4991441;28;212340;-73
2022/12/05 05:36:29;;;;;;;;;;;5.30;99.90;;;;;;5072824;28;19924;-73
2022/12/05 05:38:58;;;;;;;;;;;5.30;99.90;;;;;;4982627;28;100281;-73
2022/12/05 05:41:25;;;;;;;;;;;5.30;99.90;;;;;;5068795;28;19924;-73
2022/12/05 05:43:51;;;;;;;;;;;5.30;99.90;;;;;;5001711;28;208497;-72
2022/12/05 05:46:19;;;;;;;;;;;5.30;99.90;;;;;;5066120;28;20404;-73
2022/12/05 05:48:45;;;;;;;;;;;5.30;99.90;;;;;;5014130;27;213926;-71
2022/12/05 05:51:12;;;;;;;;;;;5.30;99.90;;;;;;5094295;27;19924;-73
2022/12/05 05:53:38;;;;;;;;;;;5.40;99.90;;;;;;4971129;28;162645;-72
2022/12/05 05:56:07;;;;;;;;;;;5.30;99.90;;;;;;5065282;28;19921;-73
2022/12/05 05:58:33;;;;;;;;;;;5.30;99.90;;;;;;5017322;28;206314;-72
2022/12/05 06:01:06;;;;;;;;;;;5.40;99.90;;;;;;5073483;28;19920;-72
2022/12/05 06:03:33;;;;;;;;;;;5.30;99.90;;;;;;5009676;28;157422;-72
2022/12/05 06:06:00;;;;;;;;;;;5.30;99.90;;;;;;5089798;28;20305;-72
2022/12/05 06:08:28;;;;;;;;;;;5.30;99.90;;;;;;5013410;28;206438;-73
2022/12/05 06:10:54;;;;;;;;;;;5.40;99.90;;;;;;5060129;28;19935;-72
2022/12/05 06:13:20;;;;;;;;;;;5.40;99.90;;;;;;5008491;28;208703;-72
2022/12/05 06:15:46;;;;;;;;;;;5.40;99.90;;;;;;5059238;28;19990;-73
2022/12/05 06:18:12;;;;;;;;;;;5.30;99.90;;;;;;4999002;28;207947;-72
2022/12/05 06:20:38;;;;;;;;;;;5.40;99.90;;;;;;5054839;28;19924;-72
2022/12/05 06:23:04;;;;;;;;;;;5.40;99.90;;;;;;5016973;28;186402;-72
2022/12/05 06:25:30;;;;;;;;;;;5.40;99.90;;;;;;5062247;28;19929;-72
2022/12/05 06:27:55;;;;;;;;;;;5.40;99.90;;;;;;5003950;28;109856;-72
2022/12/05 06:30:21;;;;;;;;;;;5.40;99.90;;;;;;5054201;28;19936;-72
2022/12/05 06:32:47;;;;;;;;;;;5.40;99.90;;;;;;5010380;28;203564;-72
2022/12/05 06:35:16;;;;;;;;;;;5.40;99.90;;;;;;5078830;28;19924;-72
2022/12/05 06:37:43;;;;;;;;;;;5.30;99.90;;;;;;5020381;28;194826;-72
2022/12/05 06:40:09;;;;;;;;;;;5.40;99.90;;;;;;5045698;28;20340;-73
2022/12/05 06:42:35;;;;;;;;;;;5.40;99.90;;;;;;5000829;28;206337;-72
2022/12/05 06:45:02;;;;;;;;;;;5.40;99.90;;;;;;5027644;28;19925;-73
2022/12/05 06:47:28;;;;;;;;;;;5.40;99.90;;;;;;5007436;28;157206;-73
2022/12/05 06:49:54;;;;;;;;;;;5.40;99.90;;;;;;5081854;28;19943;-73
2022/12/05 06:52:20;;;;;;;;;;;5.40;99.90;;;;;;5014314;28;166771;-74
2022/12/05 06:54:46;;;;;;;;;;;5.40;99.90;;;;;;5062856;28;19986;-74
2022/12/05 06:57:12;;;;;;;;;;;5.40;99.90;;;;;;5029209;28;209106;-73
2022/12/05 06:59:38;;;;;;;;;;;5.40;99.90;;;;;;5059271;28;19921;-73
2022/12/05 07:02:07;;;;;;;;;;;5.30;99.90;;;;;;5041186;28;211426;-72
2022/12/05 07:04:33;;;;;;;;;;;5.40;99.90;;;;;;5027038;28;19925;-73
2022/12/05 07:07:01;;;;;;;;;;;5.40;99.90;;;;;;5050029;28;212385;-73
2022/12/05 07:09:47;;;;;;;;;;;5.40;99.90;;;;;;5041780;28;19920;-73
2022/12/05 07:12:14;;;;;;;;;;;5.40;99.90;;;;;;5003605;28;206984;-73
2022/12/05 07:14:40;;;;;;;;;;;5.40;99.90;;;;;;5065985;28;20416;-73
2022/12/05 07:17:06;;;;;;;;;;;5.40;99.90;;;;;;5032963;28;207418;-73
2022/12/05 07:19:32;;;;;;;;;;;5.40;99.90;;;;;;5082164;28;19928;-73
2022/12/05 07:21:58;;;;;;;;;;;5.40;99.90;;;;;;5013389;28;210349;-73
2022/12/05 07:24:24;;;;;;;;;;;5.40;99.90;;;;;;5014381;28;19916;-73
2022/12/05 07:26:50;;;;;;;;;;;5.40;99.90;;;;;;5027022;28;208880;-73
2022/12/05 07:29:15;;;;;;;;;;;5.40;99.90;;;;;;5029497;28;19936;-73
2022/12/05 07:31:42;;;;;;;;;;;5.50;99.90;;;;;;5062902;28;216811;-73
2022/12/05 07:34:07;;;;;;;;;;;5.40;99.90;;;;;;4996388;28;212152;-73
2022/12/05 07:36:33;;;;;;;;;;;5.40;99.90;;;;;;5060227;28;19995;-72
2022/12/05 07:38:59;;;;;;;;;;;5.40;99.90;;;;;;4997781;28;212283;-73
2022/12/05 07:41:27;;;;;;;;;;;5.40;99.90;;;;;;5060341;28;20343;-72
2022/12/05 07:43:53;;;;;;;;;;;5.40;99.90;;;;;;5026101;28;212432;-73
2022/12/05 07:46:19;;;;;;;;;;;5.40;99.90;;;;;;5070947;28;19920;-73
2022/12/05 07:48:49;;;;;;;;;;;5.40;99.90;;;;;;4987535;28;194930;-72
2022/12/05 07:51:14;;;;;;;;;;;5.40;99.90;;;;;;5071391;28;19924;-73
2022/12/05 07:53:42;;;;;;;;;;;5.50;99.90;;;;;;5018392;28;189775;-73
2022/12/05 07:56:09;;;;;;;;;;;5.40;99.90;;;;;;5069161;28;19924;-73
2022/12/05 07:58:35;;;;;;;;;;;5.40;99.90;;;;;;5004253;28;210999;-72
2022/12/05 08:01:21;;;;;;;;;;;5.40;99.90;;;;;;5065706;28;19925;-73
2022/12/05 08:03:47;;;;;;;;;;;5.40;99.90;;;;;;5013672;28;180990;-73
2022/12/05 08:06:17;;;;;;;;;;;5.40;99.90;;;;;;5075152;28;19924;-73
2022/12/05 08:08:44;;;;;;;;;;;5.40;99.90;;;;;;4991017;28;120150;-73
2022/12/05 08:11:14;;;;;;;;;;;5.40;99.90;;;;;;5073247;28;19925;-73
2022/12/05 08:13:40;;;;;;;;;;;5.40;99.90;;;;;;4991077;28;176372;-73
2022/12/05 08:16:09;;;;;;;;;;;5.40;99.90;;;;;;5064117;28;19928;-73
2022/12/05 08:18:35;;;;;;;;;;;5.40;99.90;;;;;;5024784;28;166594;-73
2022/12/05 08:21:01;;;;;;;;;;;5.50;99.90;;;;;;5066991;28;20382;-73
2022/12/05 08:23:29;;;;;;;;;;;5.40;99.90;;;;;;5044093;28;218877;-73
2022/12/05 08:25:55;;;;;;;;;;;5.40;99.90;;;;;;5070272;28;19920;-73
2022/12/05 08:28:21;;;;;;;;;;;5.40;99.90;;;;;;5004892;28;212734;-72
2022/12/05 08:30:46;;;;;;;;;;;5.40;99.90;;;;;;5066441;28;19935;-73
2022/12/05 08:33:12;;;;;;;;;;;5.40;99.90;;;;;;5006519;28;167835;-73
2022/12/05 08:35:38;;;;;;;;;;;5.40;99.90;;;;;;5066059;28;20430;-73
2022/12/05 08:38:04;;;;;;;;;;;5.40;99.90;;;;;;4983668;28;208597;-72
2022/12/05 08:40:30;;;;;;;;;;;5.40;99.90;;;;;;5060506;28;20090;-72
2022/12/05 08:42:56;;;;;;;;;;;5.40;99.90;;;;;;5002420;28;201137;-73
2022/12/05 08:45:22;;;;;;;;;;;5.40;99.90;;;;;;5055360;28;19920;-72
2022/12/05 08:47:48;;;;;;;;;;;5.40;99.90;;;;;;5005475;28;144166;-72
2022/12/05 08:50:14;;;;;;;;;;;5.40;99.90;;;;;;5050549;28;19930;-73
2022/12/05 08:52:40;;;;;;;;;;;5.40;99.90;;;;;;5002776;28;163419;-72
2022/12/05 08:55:06;;;;;;;;;;;5.50;99.90;;;;;;5046635;28;19928;-72
2022/12/05 08:57:32;;;;;;;;;;;5.50;99.90;;;;;;5014842;28;162793;-72
2022/12/05 08:59:58;;;;;;;;;;;5.50;99.90;;;;;;5054614;28;19990;-73
2022/12/05 09:02:24;;;;;;;;;;;5.50;99.90;;;;;;5010297;28;214755;-73
2022/12/05 09:04:51;;;;;;;;;;;5.40;99.90;;;;;;5068221;28;20286;-73
2022/12/05 09:07:17;;;;;;;;;;;5.40;99.90;;;;;;5030115;27;207436;-73
2022/12/05 09:09:42;;;;;;;;;;;5.50;99.90;;;;;;5083308;28;19930;-73
2022/12/05 09:12:08;;;;;;;;;;;5.50;99.90;;;;;;5015647;28;156003;-73
2022/12/05 09:14:34;;;;;;;;;;;5.40;99.90;;;;;;5057454;28;19969;-73
2022/12/05 09:17:00;;;;;;;;;;;5.40;99.90;;;;;;5039107;28;214577;-73
2022/12/05 09:19:27;;;;;;;;;;;5.40;99.90;;;;;;5089233;28;19920;-74
2022/12/05 09:21:54;;;;;;;;;;;5.50;99.90;;;;;;5018909;28;208170;-74
2022/12/05 09:24:19;;;;;;;;;;;5.40;99.90;;;;;;5040400;28;19928;-74
2022/12/05 09:26:45;;;;;;;;;;;5.40;99.90;;;;;;5047045;28;218851;-74
2022/12/05 09:29:12;;;;;;;;;;;5.40;99.90;;;;;;5016964;28;19932;-73
2022/12/05 09:31:38;;;;;;;;;;;5.40;99.90;;;;;;5077062;28;20401;-73
2022/12/05 09:34:04;;;;;;;;;;;5.40;99.90;;;;;;4992950;28;163082;-73
2022/12/05 09:36:30;;;;;;;;;;;5.40;99.90;;;;;;5105937;27;19931;-73
2022/12/05 09:39:02;;;;;;;;;;;5.40;99.90;;;;;;5020241;28;147741;-73
2022/12/05 09:44:27;;;;;;;;;;;5.40;99.90;;;;;;5015929;28;206542;-74
2022/12/05 09:46:55;;;;;;;;;;;5.40;99.90;;;;;;5020108;28;211656;-73
2022/12/05 09:49:22;;;;;;;;;;;5.40;99.90;;;;;;5034247;28;19955;-73
2022/12/05 09:51:49;;;;;;;;;;;5.50;99.90;;;;;;5035000;28;211692;-74
2022/12/05 09:54:16;;;;;;;;;;;5.40;99.90;;;;;;5021096;28;20310;-74
2022/12/05 09:56:43;;;;;;;;;;;5.40;99.90;;;;;;5053497;28;211867;-74
2022/12/05 09:59:14;;;;;;;;;;;5.40;99.90;;;;;;5013320;28;211210;-74
2022/12/05 10:01:41;;;;;;;;;;;5.50;99.90;;;;;;5051161;28;211697;-74
2022/12/05 10:04:25;;;;;;;;;;;5.40;99.90;;;;;;4989238;28;160777;-73
2022/12/05 10:07:09;;;;;;;;;;;5.40;99.90;;;;;;5032679;28;221949;-73
2022/12/05 10:09:46;;;;;;;;;;;5.50;99.90;;;;;;5038345;28;19921;-74
2022/12/05 10:12:14;;;;;;;;;;;5.50;99.90;;;;;;5003147;28;220838;-72
2022/12/05 10:14:50;;;;;;;;;;;5.50;99.90;;;;;;5067636;28;20393;-73
2022/12/05 10:17:21;;;;;;;;;;;5.50;99.90;;;;;;5018502;28;177798;-73
2022/12/05 10:19:48;;;;;;;;;;;5.50;99.90;;;;;;5056063;28;19936;-75
2022/12/05 10:22:17;;;;;;;;;;;5.50;99.90;;;;;;5018327;28;207688;-74
2022/12/05 10:24:44;;;;;;;;;;;5.50;99.90;;;;;;5040180;28;19927;-74
2022/12/05 10:27:17;;;;;;;;;;;5.50;99.90;;;;;;5014366;28;201331;-73
2022/12/05 10:29:52;;;;;;;;;;;5.50;99.90;;;;;;5043333;28;19932;-73
2022/12/05 10:32:39;;;;;;;;;;;5.50;99.90;;;;;;5039856;28;153261;-74
2022/12/05 10:35:35;;;;;;;;;;;5.50;99.90;;;;;;5074624;28;19920;-74
2022/12/05 10:38:05;;;;;;;;;;;5.50;99.90;;;;;;4996257;28;181426;-74
2022/12/05 10:40:38;;;;;;;;;;;5.50;99.90;;;;;;5051697;28;19932;-74
2022/12/05 10:43:07;;;;;;;;;;;5.50;99.90;;;;;;4968733;28;207865;-74
2022/12/05 10:45:34;;;;;;;;;;;5.50;99.90;;;;;;5005132;28;19936;-74
2022/12/05 10:48:00;;;;;;;;;;;5.50;99.90;;;;;;4974157;28;181266;-74
2022/12/05 10:50:34;;;;;;;;;;;5.50;99.90;;;;;;5045515;28;19968;-75
2022/12/05 10:53:01;;;;;;;;;;;5.50;99.90;;;;;;4977973;28;131584;-73
2022/12/05 10:55:29;;;;;;;;;;;5.60;99.90;;;;;;5033829;28;19927;-74
2022/12/05 10:58:27;;;;;;;;;;;5.50;99.90;;;;;;4990707;28;182138;-73
2022/12/05 11:00:57;;;;;;;;;;;5.50;99.90;;;;;;4970006;28;20037;-74
2022/12/05 11:03:24;;;;;;;;;;;5.50;99.90;;;;;;4912373;28;180563;-73
2022/12/05 11:05:51;;;;;;;;;;;5.60;99.90;;;;;;4969416;28;20486;-73
2022/12/05 11:08:21;;;;;;;;;;;5.50;99.90;;;;;;4952488;28;206449;-74
2022/12/05 11:10:47;;;;;;;;;;;5.60;99.90;;;;;;4972485;28;19946;-73
2022/12/05 11:13:14;;;;;;;;;;;5.50;99.90;;;;;;4916029;28;203100;-73
2022/12/05 11:15:44;;;;;;;;;;;5.60;99.90;;;;;;5000182;28;19925;-73
2022/12/05 11:18:37;;;;;;;;;;;5.50;99.90;;;;;;4950384;28;207411;-73
2022/12/05 11:21:08;;;;;;;;;;;5.60;99.90;;;;;;4969401;28;19926;-73
2022/12/05 11:23:33;;;;;;;;;;;5.60;99.90;;;;;;4952380;28;182958;-73
2022/12/05 11:25:59;;;;;;;;;;;5.60;99.90;;;;;;4992744;28;19921;-73
2022/12/05 11:28:30;;;;;;;;;;;5.60;99.90;;;;;;4938210;28;217490;-74
2022/12/05 11:30:56;;;;;;;;;;;5.60;99.90;;;;;;5009366;28;19936;-73
2022/12/05 11:33:23;;;;;;;;;;;5.60;99.90;;;;;;4950979;28;209095;-73
2022/12/05 11:35:53;;;;;;;;;;;5.60;99.90;;;;;;5003884;28;19921;-73
2022/12/05 11:38:20;;;;;;;;;;;5.60;99.90;;;;;;4990661;28;210558;-74
2022/12/05 11:40:53;;;;;;;;;;;5.60;99.90;;;;;;5056513;28;19924;-73
2022/12/05 11:43:25;;;;;;;;;;;5.60;99.90;;;;;;5004162;28;101749;-73
2022/12/05 11:46:09;;;;;;;;;;;5.60;99.90;;;;;;5063983;28;19927;-73
2022/12/05 11:48:35;;;;;;;;;;;5.60;99.90;;;;;;4987365;28;200976;-73
2022/12/05 11:51:01;;;;;;;;;;;5.70;99.90;;;;;;5055602;28;19924;-74
2022/12/05 11:53:45;;;;;;;;;;;5.60;99.90;;;;;;5012274;28;177952;-74
2022/12/05 11:56:30;;;;;;;;;;;5.60;99.90;;;;;;5062320;28;19920;-74
2022/12/05 11:59:12;;;;;;;;;;;5.60;99.90;;;;;;5004267;28;211028;-73
2022/12/05 12:01:56;;;;;;;;;;;5.60;99.90;;;;;;5063632;28;19925;-73
2022/12/05 12:04:22;;;;;;;;;;;5.60;99.90;;;;;;4969360;28;208696;-73
2022/12/05 12:07:00;;;;;;;;;;;5.60;99.90;;;;;;5021925;28;206249;-73
2022/12/05 12:09:33;;;;;;;;;;;5.60;99.90;;;;;;5042932;28;19920;-73
2022/12/05 12:12:19;;;;;;;;;;;5.60;99.90;;;;;;5017526;27;210537;-74
2022/12/05 12:15:04;;;;;;;;;;;5.60;99.90;;;;;;5054582;28;19927;-73
2022/12/05 12:17:40;;;;;;;;;;;5.60;99.90;;;;;;5044779;27;206874;-73
2022/12/05 12:20:06;;;;;;;;;;;5.60;99.90;;;;;;5062208;28;19928;-74
2022/12/05 12:22:50;;;;;;;;;;;5.60;99.90;;;;;;5046310;27;141329;-73
2022/12/05 12:25:24;;;;;;;;;;;5.60;99.90;;;;;;5049464;28;19936;-73
2022/12/05 12:27:52;;;;;;;;;;;5.60;99.90;;;;;;5013665;28;150897;-74
2022/12/05 12:30:21;;;;;;;;;;;5.60;99.90;;;;;;5055241;28;19927;-74
2022/12/05 12:33:06;;;;;;;;;;;5.60;99.90;;;;;;5016441;28;149539;-74
2022/12/05 12:35:52;;;;;;;;;;;5.60;99.90;;;;;;5057528;28;19921;-74
2022/12/05 12:38:20;;;;;;;;;;;5.60;99.90;;;;;;5007668;28;185268;-73
2022/12/05 12:40:54;;;;;;;;;;;5.60;99.90;;;;;;5066732;28;19924;-74
2022/12/05 12:43:20;;;;;;;;;;;5.60;99.90;;;;;;5008314;28;207382;-74
2022/12/05 12:46:03;;;;;;;;;;;5.60;99.90;;;;;;5063087;28;19934;-74
2022/12/05 12:48:29;;;;;;;;;;;5.60;99.90;;;;;;4991198;28;206041;-74
2022/12/05 12:50:56;;;;;;;;;;;5.60;99.90;;;;;;5064669;28;20008;-73
2022/12/05 12:53:40;;;;;;;;;;;5.60;99.90;;;;;;4997616;28;208801;-74
2022/12/05 12:56:07;;;;;;;;;;;5.60;99.90;;;;;;5065349;28;19927;-73
2022/12/05 12:58:39;;;;;;;;;;;5.60;99.90;;;;;;5004895;28;137278;-73
2022/12/05 13:01:10;;;;;;;;;;;5.60;99.90;;;;;;5061309;28;19921;-73
2022/12/05 13:03:40;;;;;;;;;;;5.60;99.90;;;;;;4990588;28;174466;-74
2022/12/05 13:06:17;;;;;;;;;;;5.60;99.90;;;;;;5069697;28;19920;-73
2022/12/05 13:08:49;;;;;;;;;;;5.50;99.90;;;;;;5017767;28;207611;-74
2022/12/05 13:11:16;;;;;;;;;;;5.60;99.90;;;;;;5104714;27;19928;-73
2022/12/05 13:13:44;;;;;;;;;;;5.60;99.90;;;;;;5004472;28;131681;-73
2022/12/05 13:16:13;;;;;;;;;;;5.60;99.90;;;;;;5069660;28;20393;-73
2022/12/05 13:18:38;;;;;;;;;;;5.60;99.90;;;;;;4992532;28;178067;-74
2022/12/05 13:21:06;;;;;;;;;;;5.60;99.90;;;;;;5067929;28;19924;-74
2022/12/05 13:23:40;;;;;;;;;;;5.60;99.90;;;;;;5027866;28;211860;-74
2022/12/05 13:26:08;;;;;;;;;;;5.60;99.90;;;;;;5076700;28;19927;-74
2022/12/05 13:28:41;;;;;;;;;;;5.60;99.90;;;;;;4991622;28;164767;-74
2022/12/05 13:31:07;;;;;;;;;;;5.60;99.90;;;;;;5072189;28;19956;-74
2022/12/05 13:33:44;;;;;;;;;;;5.60;99.90;;;;;;4994635;28;190009;-74
2022/12/05 13:44:49;;;;;;;;;;;5.60;99.90;;;;;;5043499;28;19930;-74
2022/12/05 13:47:34;;;;;;;;;;;5.60;99.90;;;;;;5046177;28;180665;-74
2022/12/05 13:50:00;;;;;;;;;;;5.60;99.90;;;;;;5050370;28;19966;-74
2022/12/05 13:52:28;;;;;;;;;;;5.60;99.90;;;;;;5014262;28;205005;-74
2022/12/05 13:55:05;;;;;;;;;;;5.60;99.90;;;;;;5044295;28;20145;-74
2022/12/05 13:57:36;;;;;;;;;;;5.50;99.90;;;;;;5046427;27;206954;-74
2022/12/05 14:00:09;;;;;;;;;;;5.50;99.90;;;;;;5051985;28;19921;-74
2022/12/05 14:02:40;;;;;;;;;;;5.50;99.90;;;;;;5001410;28;208017;-75
2022/12/05 14:05:12;;;;;;;;;;;5.50;99.90;;;;;;5042616;28;20305;-74
2022/12/05 14:07:43;;;;;;;;;;;5.50;99.90;;;;;;5038797;27;211496;-74
2022/12/05 14:10:15;;;;;;;;;;;5.50;99.90;;;;;;5050875;28;19931;-74
2022/12/05 14:12:49;;;;;;;;;;;5.50;99.90;;;;;;4998000;28;206106;-74
2022/12/05 14:15:24;;;;;;;;;;;5.50;99.90;;;;;;5042366;28;19920;-74
2022/12/05 14:17:55;;;;;;;;;;;5.50;99.90;;;;;;5031855;27;169011;-74
2022/12/05 14:20:25;;;;;;;;;;;5.50;99.90;;;;;;5059557;28;19975;-74
2022/12/05 14:23:06;;;;;;;;;;;5.50;99.90;;;;;;5033555;28;207924;-74
2022/12/05 14:25:45;;;;;;;;;;;5.50;99.90;;;;;;5062789;28;19921;-74
2022/12/05 14:28:29;;;;;;;;;;;5.50;99.90;;;;;;5026970;28;204519;-74
2022/12/05 14:31:04;;;;;;;;;;;5.50;99.90;;;;;;5047199;28;19940;-74
2022/12/05 14:33:32;;;;;;;;;;;5.50;99.90;;;;;;4989849;28;144506;-73
2022/12/05 14:36:03;;;;;;;;;;;5.50;99.90;;;;;;5069044;28;19928;-74
2022/12/05 14:38:30;;;;;;;;;;;5.50;99.90;;;;;;5014485;28;115616;-74
2022/12/05 14:41:09;;;;;;;;;;;5.50;99.90;;;;;;5039613;28;20401;-74
2022/12/05 14:43:36;;;;;;;;;;;5.50;99.90;;;;;;4978964;28;193543;-74
2022/12/05 14:46:03;;;;;;;;;;;5.50;99.90;;;;;;5065157;28;19929;-74
2022/12/05 14:48:37;;;;;;;;;;;5.50;99.90;;;;;;5019875;28;180522;-74
2022/12/05 14:51:22;;;;;;;;;;;5.50;99.90;;;;;;5058959;28;19928;-74
2022/12/05 14:53:48;;;;;;;;;;;5.50;99.90;;;;;;5027719;28;208458;-73
2022/12/05 14:56:17;;;;;;;;;;;5.50;99.90;;;;;;5094956;28;19939;-74